Brutus, MI (49716)

8:45 PM EDT on August 26, 2016 (GMT -0400)
Northwest Burt Lake | | Change Station

Elev 626 ft 45.51 °N, 84.70 °W | Updated 11 minutes ago

Clear
Clear
64.5 °F
Feels Like 64.5 °F
N
0.0
Wind Variable Wind from West
Gusts 0.0 mph

Today
High -- | Low -- °F
--% Chance of Precip.
Yesterday
High -- | Low -- °F
Precip. -- in
Pressure 30.15 in
Visibility 10.0 miles
Clouds Clear
Dew Point 60 °F
Humidity 85%
Rainfall 0.00 in
Snow Depth Not available.
6:53 AM 8:26 PM
Waning Crescent, 29% visible
METAR KPLN 262354Z AUTO 22003KT 10SM CLR 19/14 A3015 RMK AO2 SLP210 T01940144 10233 20194 53008
Pressure 30.15 in
Visibility 10.0 miles
Clouds Clear
Dew Point 60 °F
Humidity 85%
Rainfall 0.00 in
Snow Depth Not available.
6:53 AM 8:26 PM
Waning Crescent, 29% visible
METAR KPLN 262354Z AUTO 22003KT 10SM CLR 19/14 A3015 RMK AO2 SLP210 T01940144 10233 20194 53008

10-Day Weather Forecast

Almanac

Astronomy

Aug. 26, 2016 Rise Set
Actual Time
Civil Twilight
Nautical Twilight
Astronomical Twilight
Moon
Length of Visible Light
Length of Day
Tomorrow will be .
, % of the Moon is Illuminated

Today's Extremes

State Highs State Lows

Community

WunderPhotos

Upload Photos

1,935,259 photos uploaded!

WunderBlog® & News

Nearby

Air Quality

  Air Quality AQ Index Pollutant
Not available.

Snow Depth

Station Depth Elevation

Earthquake Activity

City Distance Mag. Time & Date
Minimum magnitude displayed is 2.5.

Coastal Water Temperatures

Place Temperature

Stations

Nearby Weather Stations

Station Location Temp. Windchill Dew Point Humidity Wind Precip. Elev Updated Type
                   

Watches & Warnings

There are currently no watches in effect.